createdAt,value
2023-01-29T00:01:06.659Z,9.80
2023-01-29T00:02:14.782Z,10.50
2023-01-29T00:03:18.405Z,9.80
2023-01-29T00:04:22.291Z,9.40
2023-01-29T00:05:28.191Z,9.20
2023-01-29T00:06:32.689Z,8.20
2023-01-29T00:07:36.296Z,9.40
2023-01-29T00:08:39.912Z,11.20
2023-01-29T00:09:43.547Z,9.40
2023-01-29T00:10:47.688Z,13.70
2023-01-29T00:11:51.218Z,9.60
2023-01-29T00:12:55.143Z,10.00
2023-01-29T00:13:58.726Z,9.70
2023-01-29T00:15:02.350Z,10.60
2023-01-29T00:16:06.276Z,10.50
2023-01-29T00:17:10.252Z,9.40
2023-01-29T00:18:14.392Z,9.70
2023-01-29T00:19:19.398Z,8.90
2023-01-29T00:20:22.979Z,9.40
2023-01-29T00:21:26.581Z,8.90
2023-01-29T00:22:30.557Z,8.20
2023-01-29T00:23:34.177Z,9.00
2023-01-29T00:24:37.787Z,9.10
2023-01-29T00:25:42.676Z,8.10
2023-01-29T00:26:46.275Z,8.70
2023-01-29T00:27:49.899Z,8.70
2023-01-29T00:28:53.543Z,9.80
2023-01-29T00:30:10.364Z,10.00
2023-01-29T00:31:19.265Z,8.20
2023-01-29T00:32:22.938Z,8.20
2023-01-29T00:33:29.138Z,9.60
2023-01-29T00:34:32.663Z,9.00
2023-01-29T00:35:39.889Z,10.40
2023-01-29T00:36:45.587Z,9.00
2023-01-29T00:37:49.625Z,8.20
2023-01-29T00:38:59.340Z,10.30
2023-01-29T00:40:04.282Z,9.00
2023-01-29T00:41:27.157Z,8.90
2023-01-29T00:42:49.874Z,8.70
2023-01-29T00:44:12.472Z,9.00
2023-01-29T00:45:16.046Z,8.30
2023-01-29T00:46:19.681Z,9.00
2023-01-29T00:47:35.573Z,8.20
2023-01-29T00:48:39.156Z,8.10
2023-01-29T00:49:42.703Z,7.80
2023-01-29T00:50:46.720Z,8.40
2023-01-29T00:52:08.852Z,7.20
2023-01-29T00:53:12.396Z,7.20
2023-01-29T00:54:16.070Z,8.00
2023-01-29T00:55:19.627Z,8.40
2023-01-29T00:56:23.143Z,7.30
2023-01-29T00:57:28.402Z,7.50
2023-01-29T00:58:34.401Z,7.10
2023-01-29T00:59:38.293Z,8.70
2023-01-29T01:00:41.922Z,9.90
2023-01-29T01:02:04.347Z,8.00
2023-01-29T01:03:09.964Z,8.00
2023-01-29T01:04:15.046Z,9.00
2023-01-29T01:05:19.133Z,8.50
2023-01-29T01:06:22.620Z,9.80
2023-01-29T01:07:26.188Z,9.90
2023-01-29T01:08:48.374Z,9.30
2023-01-29T01:10:10.600Z,9.70
2023-01-29T01:11:14.148Z,8.10
2023-01-29T01:12:17.689Z,8.90
2023-01-29T01:13:21.281Z,9.10
2023-01-29T01:14:24.844Z,8.80
2023-01-29T01:15:34.804Z,8.50
2023-01-29T01:16:38.638Z,8.40
2023-01-29T01:17:42.361Z,8.20
2023-01-29T01:18:45.921Z,9.50
2023-01-29T01:19:49.743Z,9.70
2023-01-29T01:20:58.809Z,9.20
2023-01-29T01:22:04.896Z,8.80
2023-01-29T01:23:08.471Z,9.50
2023-01-29T01:24:12.955Z,8.20
2023-01-29T01:25:17.609Z,10.00
2023-01-29T01:27:25.594Z,7.10
2023-01-29T01:29:32.893Z,5.70
2023-01-29T01:30:36.864Z,8.20
2023-01-29T01:31:40.567Z,9.00
2023-01-29T01:32:45.019Z,8.00
2023-01-29T01:33:48.547Z,8.80
2023-01-29T01:34:52.991Z,9.20
2023-01-29T01:36:02.002Z,9.20
2023-01-29T01:37:05.612Z,8.50
2023-01-29T01:38:09.283Z,8.20
2023-01-29T01:39:12.831Z,8.60
2023-01-29T01:40:19.164Z,7.90
2023-01-29T01:41:24.106Z,9.10
2023-01-29T01:42:32.226Z,7.70
2023-01-29T01:43:55.636Z,7.40
2023-01-29T01:45:07.831Z,7.30
2023-01-29T01:46:11.731Z,7.80
2023-01-29T01:47:17.437Z,8.40
2023-01-29T01:48:25.026Z,7.50
2023-01-29T01:49:28.626Z,7.60
2023-01-29T01:50:38.099Z,7.70
2023-01-29T01:51:48.601Z,7.40
2023-01-29T01:52:56.575Z,7.60
2023-01-29T01:54:07.269Z,7.50
2023-01-29T01:55:14.678Z,8.10
2023-01-29T01:56:23.422Z,8.90
2023-01-29T01:57:30.152Z,7.90
2023-01-29T01:58:45.185Z,7.60
2023-01-29T01:59:58.594Z,7.30
2023-01-29T02:01:05.708Z,6.90
2023-01-29T02:02:28.255Z,7.20
2023-01-29T02:03:57.238Z,8.60
2023-01-29T02:05:19.476Z,8.30
2023-01-29T02:06:41.621Z,7.90
2023-01-29T02:08:06.303Z,8.80
2023-01-29T02:09:32.669Z,7.80
2023-01-29T02:10:45.147Z,6.80
2023-01-29T02:11:48.862Z,7.20
2023-01-29T02:12:52.606Z,10.20
2023-01-29T02:13:57.211Z,10.20
2023-01-29T02:15:02.772Z,8.60
2023-01-29T02:16:06.391Z,8.80
2023-01-29T02:17:14.215Z,10.10
2023-01-29T02:18:21.561Z,10.80
2023-01-29T02:19:45.473Z,9.60
2023-01-29T02:22:59.210Z,8.50
2023-01-29T02:24:14.916Z,7.30
2023-01-29T02:25:55.412Z,9.60
2023-01-29T02:27:07.628Z,8.70
2023-01-29T02:28:32.354Z,9.90
2023-01-29T02:30:28.667Z,8.20
2023-01-29T02:31:42.880Z,6.80
2023-01-29T02:33:09.399Z,8.10
2023-01-29T02:34:16.158Z,8.60
2023-01-29T02:35:34.693Z,9.60
2023-01-29T02:36:44.192Z,8.00
2023-01-29T02:38:09.402Z,7.40
2023-01-29T02:39:16.802Z,7.40
2023-01-29T02:40:32.204Z,9.70
2023-01-29T02:42:01.111Z,8.90
2023-01-29T02:43:04.669Z,8.20
2023-01-29T02:44:14.743Z,9.60
2023-01-29T02:45:51.056Z,9.40
2023-01-29T02:47:04.160Z,9.10
2023-01-29T02:48:14.955Z,8.90
2023-01-29T02:49:27.707Z,10.20
2023-01-29T02:50:37.311Z,9.20
2023-01-29T02:51:50.275Z,9.10
2023-01-29T02:53:16.843Z,9.20
2023-01-29T02:54:27.743Z,9.30
2023-01-29T02:55:54.219Z,10.40
2023-01-29T02:57:00.897Z,9.30
2023-01-29T02:58:13.383Z,10.20
2023-01-29T02:59:33.621Z,8.90
2023-01-29T03:00:42.696Z,9.10
2023-01-29T03:01:54.577Z,9.90
2023-01-29T03:03:17.108Z,9.70
2023-01-29T03:04:27.560Z,8.50
2023-01-29T03:05:43.512Z,8.10
2023-01-29T03:06:57.130Z,9.00
2023-01-29T03:08:09.233Z,8.50
2023-01-29T03:09:19.883Z,9.10
2023-01-29T03:10:28.626Z,8.90
2023-01-29T03:11:41.472Z,7.90
2023-01-29T03:12:51.475Z,9.10
2023-01-29T03:14:08.781Z,8.10
2023-01-29T03:15:29.328Z,9.90
2023-01-29T03:16:50.126Z,7.60
2023-01-29T03:18:05.193Z,7.70
2023-01-29T03:19:25.920Z,9.40
2023-01-29T03:20:34.996Z,11.50
2023-01-29T03:22:01.459Z,8.90
2023-01-29T03:23:23.903Z,8.00
2023-01-29T03:25:17.039Z,8.30
2023-01-29T03:26:41.669Z,7.50
2023-01-29T03:28:16.778Z,7.20
2023-01-29T03:29:40.901Z,7.80
2023-01-29T03:31:14.024Z,7.90
2023-01-29T03:32:28.795Z,10.10
2023-01-29T03:33:42.327Z,12.20
2023-01-29T03:34:52.971Z,7.90
2023-01-29T03:36:03.225Z,9.60
2023-01-29T03:37:15.232Z,8.40
2023-01-29T03:38:19.953Z,8.30
2023-01-29T03:39:28.447Z,9.10
2023-01-29T03:41:00.147Z,8.60
2023-01-29T03:42:29.975Z,9.50
2023-01-29T03:43:37.776Z,8.20
2023-01-29T03:44:53.236Z,9.10
2023-01-29T03:46:19.050Z,7.90
2023-01-29T03:47:35.288Z,8.80
2023-01-29T03:48:53.468Z,8.80
2023-01-29T03:50:06.156Z,8.60
2023-01-29T03:51:37.568Z,8.90
2023-01-29T03:52:59.397Z,9.90
2023-01-29T03:54:14.831Z,10.30
2023-01-29T03:55:37.111Z,7.90
2023-01-29T03:56:55.457Z,8.60
2023-01-29T03:58:15.401Z,8.60
2023-01-29T03:59:32.497Z,8.30
2023-01-29T04:01:09.830Z,7.40
2023-01-29T04:02:27.814Z,9.00
2023-01-29T04:03:35.521Z,9.30
2023-01-29T04:04:45.291Z,9.20
2023-01-29T04:05:58.391Z,9.90
2023-01-29T04:07:18.992Z,10.00
2023-01-29T04:08:28.134Z,9.60
2023-01-29T04:09:36.599Z,9.40
2023-01-29T04:10:42.844Z,10.40
2023-01-29T04:11:52.411Z,9.90
2023-01-29T04:13:04.151Z,9.30
2023-01-29T04:14:09.330Z,9.50
2023-01-29T04:15:15.654Z,11.50
2023-01-29T04:16:25.290Z,11.00
2023-01-29T04:17:52.609Z,10.30
2023-01-29T04:19:07.308Z,10.00
2023-01-29T04:20:14.739Z,9.90
2023-01-29T04:21:19.194Z,9.90
2023-01-29T04:22:37.666Z,9.50
2023-01-29T04:23:41.790Z,9.90
2023-01-29T04:24:47.939Z,10.40
2023-01-29T04:26:22.313Z,9.20
2023-01-29T04:27:50.579Z,8.30
2023-01-29T04:29:05.843Z,8.80
2023-01-29T04:30:30.991Z,9.80
2023-01-29T04:31:49.401Z,8.70
2023-01-29T04:33:04.275Z,9.90
2023-01-29T04:34:17.644Z,9.20
2023-01-29T04:35:27.102Z,8.80
2023-01-29T04:36:41.356Z,10.20
2023-01-29T04:38:06.379Z,10.30
2023-01-29T04:39:18.446Z,9.00
2023-01-29T04:40:32.089Z,9.60
2023-01-29T04:41:54.627Z,11.60
2023-01-29T04:43:15.070Z,9.20
2023-01-29T04:44:39.933Z,10.30
2023-01-29T04:46:01.864Z,9.10
2023-01-29T04:47:33.717Z,9.30
2023-01-29T04:49:25.507Z,8.40
2023-01-29T04:50:37.199Z,8.10
2023-01-29T04:51:59.407Z,8.80
2023-01-29T04:53:02.970Z,9.20
2023-01-29T04:54:12.740Z,10.60
2023-01-29T04:55:36.008Z,8.90
2023-01-29T04:57:23.230Z,10.80
2023-01-29T04:58:32.652Z,10.00
2023-01-29T04:59:42.548Z,10.80
2023-01-29T05:00:49.957Z,9.40
2023-01-29T05:01:53.610Z,9.70
2023-01-29T05:02:57.508Z,11.20
2023-01-29T05:04:21.182Z,10.40
2023-01-29T05:05:24.742Z,9.60
2023-01-29T05:06:30.686Z,9.60
2023-01-29T05:07:37.649Z,10.80
2023-01-29T05:08:42.262Z,10.30
2023-01-29T05:10:52.218Z,8.20
2023-01-29T05:11:56.683Z,8.70
2023-01-29T05:13:03.513Z,9.10
2023-01-29T05:14:11.427Z,10.30
2023-01-29T05:15:20.115Z,8.70
2023-01-29T05:16:29.888Z,10.10
2023-01-29T05:17:33.750Z,9.70
2023-01-29T05:18:37.453Z,8.80
2023-01-29T05:19:41.199Z,10.00
2023-01-29T05:20:45.545Z,10.10
2023-01-29T05:21:50.514Z,10.10
2023-01-29T05:22:54.144Z,8.20
2023-01-29T05:24:12.534Z,9.00
2023-01-29T05:25:21.408Z,8.20
2023-01-29T05:26:44.411Z,9.20
2023-01-29T05:28:16.199Z,7.80
2023-01-29T05:29:20.789Z,7.00
2023-01-29T05:30:24.369Z,8.00
2023-01-29T05:31:28.169Z,9.60
2023-01-29T05:32:32.155Z,8.20
2023-01-29T05:33:35.743Z,8.80
2023-01-29T05:34:39.537Z,8.30
2023-01-29T05:35:43.565Z,9.00
2023-01-29T05:36:47.255Z,10.30
2023-01-29T05:37:50.790Z,9.30
2023-01-29T05:38:54.553Z,9.20
2023-01-29T05:39:58.117Z,9.30
2023-01-29T05:41:01.651Z,9.40
2023-01-29T05:42:05.304Z,9.30
2023-01-29T05:43:20.323Z,10.50
2023-01-29T05:44:23.945Z,10.30
2023-01-29T05:45:27.534Z,10.70
2023-01-29T05:46:31.166Z,9.90
2023-01-29T05:47:34.766Z,9.30
2023-01-29T05:48:38.437Z,9.90
2023-01-29T05:49:42.067Z,10.20
2023-01-29T05:50:45.683Z,10.20
2023-01-29T05:51:49.263Z,11.90
2023-01-29T05:52:57.725Z,11.20
2023-01-29T05:54:01.449Z,9.60
2023-01-29T05:55:06.017Z,9.90
2023-01-29T05:56:09.716Z,10.80
2023-01-29T05:57:14.945Z,10.70
2023-01-29T05:58:19.796Z,11.60
2023-01-29T05:59:23.595Z,10.30
2023-01-29T06:00:27.175Z,12.10
2023-01-29T06:01:30.947Z,10.50
2023-01-29T06:02:34.870Z,11.40
2023-01-29T06:03:38.743Z,12.60
2023-01-29T06:04:42.364Z,10.90
2023-01-29T06:05:45.972Z,11.10
2023-01-29T06:06:49.483Z,10.80
2023-01-29T06:07:53.062Z,12.00
2023-01-29T06:08:56.838Z,10.00
2023-01-29T06:10:00.474Z,10.70
2023-01-29T06:11:04.657Z,9.90
2023-01-29T06:12:08.259Z,9.20
2023-01-29T06:13:11.802Z,9.60
2023-01-29T06:14:15.376Z,9.90
2023-01-29T06:15:19.723Z,9.80
2023-01-29T06:16:23.468Z,10.60
2023-01-29T06:17:27.040Z,11.20
2023-01-29T06:18:30.512Z,10.50
2023-01-29T06:19:34.038Z,10.60
2023-01-29T06:20:37.813Z,9.10
2023-01-29T06:21:41.437Z,11.20
2023-01-29T06:22:45.100Z,11.00
2023-01-29T06:23:48.693Z,10.40
2023-01-29T06:24:52.275Z,12.20
2023-01-29T06:26:04.823Z,12.70
2023-01-29T06:27:08.385Z,12.10
2023-01-29T06:28:12.171Z,11.10
2023-01-29T06:29:15.904Z,10.10
2023-01-29T06:30:19.824Z,9.90
2023-01-29T06:31:37.417Z,12.30
2023-01-29T06:32:42.418Z,12.50
2023-01-29T06:33:46.123Z,11.70
2023-01-29T06:34:49.872Z,11.50
2023-01-29T06:36:01.128Z,11.30
2023-01-29T06:37:04.842Z,11.40
2023-01-29T06:38:08.444Z,11.90
2023-01-29T06:39:12.572Z,10.80
2023-01-29T06:40:16.690Z,11.80
2023-01-29T06:41:25.047Z,11.40
2023-01-29T06:42:28.638Z,11.80
2023-01-29T06:43:32.223Z,11.50
2023-01-29T06:44:35.954Z,12.40
2023-01-29T06:45:47.326Z,13.00
2023-01-29T06:46:51.019Z,12.80
2023-01-29T06:47:54.626Z,11.70
2023-01-29T06:49:02.482Z,12.40
2023-01-29T06:50:06.554Z,10.70
2023-01-29T06:51:11.133Z,12.80
2023-01-29T06:52:14.725Z,11.40
2023-01-29T06:53:18.307Z,12.20
2023-01-29T06:54:21.909Z,12.10
2023-01-29T06:55:25.530Z,12.00
2023-01-29T06:56:29.051Z,12.00
2023-01-29T06:57:32.794Z,12.90
2023-01-29T06:58:38.114Z,12.30
2023-01-29T06:59:41.701Z,10.80
2023-01-29T07:00:45.298Z,12.20
2023-01-29T07:01:49.059Z,12.00
2023-01-29T07:02:52.782Z,12.20
2023-01-29T07:03:56.483Z,12.60
2023-01-29T07:05:00.072Z,12.30
2023-01-29T07:06:05.248Z,10.80
2023-01-29T07:07:13.362Z,12.30
2023-01-29T07:08:17.019Z,12.30
2023-01-29T07:09:20.567Z,13.20
2023-01-29T07:10:24.295Z,12.30
2023-01-29T07:11:27.941Z,12.00
2023-01-29T07:12:31.567Z,13.50
2023-01-29T07:13:35.211Z,14.20
2023-01-29T07:14:38.829Z,13.00
2023-01-29T07:15:42.930Z,13.60
2023-01-29T07:16:46.644Z,13.40
2023-01-29T07:18:12.603Z,13.10
2023-01-29T07:19:16.207Z,12.40
2023-01-29T07:20:19.851Z,12.40
2023-01-29T07:21:23.533Z,12.10
2023-01-29T07:22:27.239Z,12.60
2023-01-29T07:23:30.875Z,12.80
2023-01-29T07:24:34.574Z,14.10
2023-01-29T07:25:38.887Z,14.00
2023-01-29T07:26:42.855Z,14.10
2023-01-29T07:27:46.502Z,13.80
2023-01-29T07:28:50.188Z,14.20
2023-01-29T07:29:53.687Z,13.60
2023-01-29T07:30:58.414Z,12.90
2023-01-29T07:32:02.435Z,15.90
2023-01-29T07:33:08.671Z,13.80
2023-01-29T07:34:12.169Z,13.10
2023-01-29T07:35:15.811Z,13.50
2023-01-29T07:36:19.509Z,12.70
2023-01-29T07:37:23.257Z,13.40
2023-01-29T07:38:26.840Z,12.80
2023-01-29T07:39:30.360Z,14.00
2023-01-29T07:40:34.238Z,14.90
2023-01-29T07:41:37.785Z,14.30
2023-01-29T07:42:51.527Z,12.70
2023-01-29T07:43:55.051Z,12.50
2023-01-29T07:44:58.722Z,13.20
2023-01-29T07:46:05.534Z,13.60
2023-01-29T07:47:09.393Z,12.50
2023-01-29T07:48:13.413Z,12.20
2023-01-29T07:49:17.156Z,13.60
2023-01-29T07:50:25.049Z,13.30
2023-01-29T07:51:28.625Z,12.20
2023-01-29T07:52:33.790Z,12.10
2023-01-29T07:53:37.560Z,12.70
2023-01-29T07:54:41.194Z,13.90
2023-01-29T07:55:45.363Z,12.80
2023-01-29T07:56:49.614Z,13.20
2023-01-29T07:57:57.841Z,14.20
2023-01-29T07:59:01.478Z,14.50
2023-01-29T08:00:05.688Z,15.40
2023-01-29T08:01:15.937Z,13.60
2023-01-29T08:02:19.697Z,14.50
2023-01-29T08:03:23.419Z,14.40
2023-01-29T08:04:26.965Z,14.20
2023-01-29T08:05:30.709Z,13.10
2023-01-29T08:06:34.317Z,13.80
2023-01-29T08:07:38.020Z,14.10
2023-01-29T08:08:41.663Z,14.20
2023-01-29T08:09:47.561Z,13.50
2023-01-29T08:10:51.717Z,11.90
2023-01-29T08:11:55.311Z,12.90
2023-01-29T08:13:01.044Z,13.00
2023-01-29T08:14:04.638Z,12.70
2023-01-29T08:15:08.908Z,12.50
2023-01-29T08:16:12.701Z,12.20
2023-01-29T08:17:16.317Z,11.60
2023-01-29T08:18:19.906Z,13.70
2023-01-29T08:19:23.524Z,11.00
2023-01-29T08:20:27.217Z,12.90
2023-01-29T08:21:30.982Z,13.40
2023-01-29T08:22:34.579Z,13.30
2023-01-29T08:23:38.109Z,12.00
2023-01-29T08:24:53.682Z,12.00
2023-01-29T08:26:03.870Z,12.10
2023-01-29T08:27:07.537Z,13.20
2023-01-29T08:28:12.376Z,14.00
2023-01-29T08:29:16.180Z,13.30
2023-01-29T08:30:19.817Z,15.20
2023-01-29T08:31:23.549Z,16.00
2023-01-29T08:32:27.228Z,11.60
2023-01-29T08:33:38.640Z,13.40
2023-01-29T08:34:42.956Z,12.50
2023-01-29T08:35:50.861Z,13.60
2023-01-29T08:36:54.395Z,15.10
2023-01-29T08:38:00.451Z,11.80
2023-01-29T08:39:04.137Z,12.60
2023-01-29T08:40:09.457Z,12.80
2023-01-29T08:41:13.381Z,10.80
2023-01-29T08:42:16.920Z,11.40
2023-01-29T08:43:20.528Z,15.20
2023-01-29T08:44:24.875Z,12.10
2023-01-29T08:45:28.458Z,12.40
2023-01-29T08:46:32.165Z,12.40
2023-01-29T08:47:35.943Z,10.90
2023-01-29T08:48:39.843Z,13.10
2023-01-29T08:49:43.398Z,13.70
2023-01-29T08:50:46.954Z,15.20
2023-01-29T08:51:51.629Z,13.80
2023-01-29T08:52:59.038Z,13.30
2023-01-29T08:54:02.645Z,12.70
2023-01-29T08:55:06.837Z,12.60
2023-01-29T08:56:10.525Z,11.60
2023-01-29T08:57:14.035Z,11.60
2023-01-29T08:58:17.771Z,12.80
2023-01-29T08:59:22.934Z,10.90
2023-01-29T09:00:26.564Z,12.70
2023-01-29T09:01:30.205Z,10.60
2023-01-29T09:02:33.858Z,10.90
2023-01-29T09:03:40.939Z,10.50
2023-01-29T09:04:44.663Z,14.30
2023-01-29T09:05:48.832Z,10.70
2023-01-29T09:06:52.494Z,11.50
2023-01-29T09:07:59.166Z,13.40
2023-01-29T09:09:02.772Z,11.00
2023-01-29T09:10:07.041Z,12.90
2023-01-29T09:11:11.205Z,11.10
2023-01-29T09:12:14.757Z,12.40
2023-01-29T09:13:18.326Z,13.60
2023-01-29T09:14:21.902Z,13.60
2023-01-29T09:15:25.821Z,10.30
2023-01-29T09:16:29.478Z,13.40
2023-01-29T09:17:33.115Z,15.50
2023-01-29T09:18:37.039Z,15.70
2023-01-29T09:19:40.763Z,13.20
2023-01-29T09:20:44.337Z,14.10
2023-01-29T09:21:49.389Z,13.50
2023-01-29T09:22:55.963Z,17.20
2023-01-29T09:23:59.504Z,13.50
2023-01-29T09:25:03.707Z,15.40
2023-01-29T09:26:08.349Z,12.10
2023-01-29T09:27:12.112Z,14.20
2023-01-29T09:28:17.523Z,12.20
2023-01-29T09:29:21.066Z,13.00
2023-01-29T09:30:24.679Z,14.30
2023-01-29T09:31:28.286Z,12.70
2023-01-29T09:33:57.243Z,13.00
2023-01-29T09:35:00.791Z,11.10
2023-01-29T09:36:05.104Z,13.00
2023-01-29T09:37:08.693Z,12.60
2023-01-29T09:38:12.306Z,13.70
2023-01-29T09:39:15.835Z,12.50
2023-01-29T09:40:51.775Z,12.20
2023-01-29T09:42:13.830Z,10.70
2023-01-29T09:43:39.530Z,11.20
2023-01-29T09:44:58.416Z,11.60
2023-01-29T09:46:09.712Z,11.30
2023-01-29T09:47:16.887Z,10.60
2023-01-29T09:48:23.510Z,9.40
2023-01-29T09:49:33.040Z,12.20
2023-01-29T09:50:39.869Z,11.20
2023-01-29T09:51:50.447Z,11.70
2023-01-29T09:53:19.206Z,11.20
2023-01-29T09:54:54.203Z,11.60
2023-01-29T09:56:11.459Z,12.40
2023-01-29T09:57:23.672Z,10.50
2023-01-29T09:58:31.780Z,12.30
2023-01-29T09:59:35.344Z,11.80
2023-01-29T10:01:01.469Z,11.30
2023-01-29T10:02:29.353Z,12.30
2023-01-29T10:04:03.324Z,12.70
2023-01-29T10:05:16.293Z,9.30
2023-01-29T10:06:38.387Z,10.60
2023-01-29T10:08:06.541Z,10.30
2023-01-29T10:09:28.967Z,9.90
2023-01-29T10:10:51.579Z,12.10
2023-01-29T10:12:46.702Z,11.80
2023-01-29T10:14:09.740Z,9.50
2023-01-29T10:15:28.350Z,9.80
2023-01-29T10:16:43.989Z,10.50
2023-01-29T10:18:09.881Z,11.80
2023-01-29T10:19:25.352Z,11.20
2023-01-29T10:20:35.678Z,11.60
2023-01-29T10:22:02.482Z,12.00
2023-01-29T10:23:18.649Z,13.40
2023-01-29T10:24:35.761Z,13.90
2023-01-29T10:25:41.505Z,12.60
2023-01-29T10:26:45.331Z,13.50
2023-01-29T10:27:55.014Z,12.60
2023-01-29T10:29:05.569Z,12.60
2023-01-29T10:30:37.353Z,12.50
2023-01-29T10:31:41.051Z,10.90
2023-01-29T10:32:45.659Z,12.80
2023-01-29T10:34:02.130Z,11.50
2023-01-29T10:35:29.426Z,9.10
2023-01-29T10:36:44.029Z,9.00
2023-01-29T10:37:47.835Z,10.10
2023-01-29T10:38:52.631Z,13.10
2023-01-29T10:41:36.529Z,9.30
2023-01-29T10:44:06.230Z,9.10
2023-01-29T10:45:16.087Z,11.40
2023-01-29T10:46:41.504Z,10.80
2023-01-29T10:48:11.664Z,10.00
2023-01-29T10:50:52.646Z,8.70
2023-01-29T10:52:19.976Z,11.50
2023-01-29T10:53:26.197Z,9.70
2023-01-29T10:55:02.712Z,12.80
2023-01-29T10:56:23.153Z,10.80
2023-01-29T10:58:02.244Z,10.90
2023-01-29T10:59:27.043Z,10.80
2023-01-29T11:00:37.819Z,11.70
2023-01-29T11:01:41.446Z,9.80
2023-01-29T11:02:48.309Z,12.60
2023-01-29T11:03:58.531Z,12.30
2023-01-29T11:05:02.229Z,13.90
2023-01-29T11:06:29.909Z,12.70
2023-01-29T11:07:33.618Z,11.00
2023-01-29T11:08:52.211Z,11.40
2023-01-29T11:10:11.480Z,13.00
2023-01-29T11:11:21.823Z,10.70
2023-01-29T11:12:33.516Z,11.80
2023-01-29T11:14:07.008Z,10.00
2023-01-29T11:15:20.943Z,11.70
2023-01-29T11:16:33.254Z,13.20
2023-01-29T11:17:36.880Z,13.10
2023-01-29T11:18:49.669Z,11.90
2023-01-29T11:19:55.748Z,14.20
2023-01-29T11:21:02.844Z,15.70
2023-01-29T11:22:16.193Z,13.60
2023-01-29T11:23:33.157Z,15.00
2023-01-29T11:24:36.814Z,13.70
2023-01-29T11:25:47.618Z,13.40
2023-01-29T11:26:54.163Z,14.10
2023-01-29T11:28:02.548Z,13.80
2023-01-29T11:29:52.265Z,14.10
2023-01-29T11:30:57.396Z,10.90
2023-01-29T11:32:05.457Z,12.10
2023-01-29T11:33:19.485Z,13.70
2023-01-29T11:34:27.737Z,11.80
2023-01-29T11:35:33.341Z,12.30
2023-01-29T11:36:38.612Z,9.50
2023-01-29T11:37:44.917Z,14.80
2023-01-29T11:39:10.402Z,15.00
2023-01-29T11:40:19.971Z,13.20
2023-01-29T11:41:25.468Z,13.30
2023-01-29T11:42:31.340Z,12.40
2023-01-29T11:43:35.016Z,11.70
2023-01-29T11:44:38.516Z,12.30
2023-01-29T11:45:42.311Z,13.40
2023-01-29T11:46:47.246Z,12.20
2023-01-29T11:47:54.205Z,14.20
2023-01-29T11:48:59.379Z,13.30
2023-01-29T11:50:21.713Z,12.10
2023-01-29T11:51:29.894Z,11.70
2023-01-29T11:52:40.761Z,16.00
2023-01-29T11:53:49.556Z,13.00
2023-01-29T11:54:58.262Z,10.20
2023-01-29T11:56:16.685Z,13.20
2023-01-29T11:57:26.639Z,24.10
2023-01-29T11:58:32.994Z,14.50
2023-01-29T11:59:49.937Z,13.30
2023-01-29T12:00:55.552Z,13.40
2023-01-29T12:02:17.074Z,15.20
2023-01-29T12:03:41.480Z,13.20
2023-01-29T12:04:45.919Z,13.00
2023-01-29T12:05:55.850Z,11.20
2023-01-29T12:06:59.440Z,11.50
2023-01-29T12:08:03.895Z,11.50
2023-01-29T12:09:17.435Z,12.30
2023-01-29T12:10:38.965Z,13.50
2023-01-29T12:11:42.831Z,13.80
2023-01-29T12:12:46.447Z,13.30
2023-01-29T12:14:01.571Z,14.00
2023-01-29T12:15:05.667Z,15.20
2023-01-29T12:16:25.395Z,14.80
2023-01-29T12:17:34.272Z,16.40
2023-01-29T12:19:21.520Z,14.40
2023-01-29T12:20:41.490Z,11.30
2023-01-29T12:22:01.179Z,13.20
2023-01-29T12:23:31.455Z,12.50
2023-01-29T12:24:41.701Z,13.10
2023-01-29T12:26:13.768Z,15.30
2023-01-29T12:27:31.784Z,12.20
2023-01-29T12:28:50.800Z,13.20
2023-01-29T12:30:06.527Z,12.60
2023-01-29T12:31:33.188Z,12.80
2023-01-29T12:33:03.449Z,11.60
2023-01-29T12:34:10.033Z,12.90
2023-01-29T12:35:18.548Z,13.80
2023-01-29T12:36:34.886Z,12.80
2023-01-29T12:38:08.487Z,12.90
2023-01-29T12:39:16.491Z,12.10
2023-01-29T12:40:24.804Z,14.20
2023-01-29T12:41:45.813Z,13.70
2023-01-29T12:42:53.531Z,12.30
2023-01-29T12:44:25.288Z,12.50
2023-01-29T12:45:30.408Z,12.40
2023-01-29T12:46:40.426Z,11.80
2023-01-29T12:47:48.480Z,11.90
2023-01-29T12:48:54.089Z,14.70
2023-01-29T12:50:03.413Z,15.60
2023-01-29T12:51:14.098Z,13.70
2023-01-29T12:52:41.883Z,15.50
2023-01-29T12:53:53.510Z,11.20
2023-01-29T12:55:06.071Z,12.80
2023-01-29T12:56:15.028Z,13.80
2023-01-29T12:57:24.921Z,12.70
2023-01-29T12:58:34.341Z,11.30
2023-01-29T12:59:49.603Z,13.30
2023-01-29T13:00:57.046Z,12.10
2023-01-29T13:02:32.644Z,15.60
2023-01-29T13:04:00.585Z,13.70
2023-01-29T13:05:22.509Z,13.50
2023-01-29T13:06:31.347Z,12.40
2023-01-29T13:07:46.080Z,10.70
2023-01-29T13:09:00.934Z,12.80
2023-01-29T13:10:15.101Z,10.20
2023-01-29T13:12:45.950Z,10.10
2023-01-29T13:14:06.896Z,9.90
2023-01-29T13:15:18.290Z,10.90
2023-01-29T13:16:26.405Z,10.90
2023-01-29T13:17:37.988Z,9.50
2023-01-29T13:18:57.962Z,10.00
2023-01-29T13:20:24.998Z,12.30
2023-01-29T13:21:38.942Z,12.80
2023-01-29T13:22:44.149Z,11.80
2023-01-29T13:23:47.674Z,11.30
2023-01-29T13:25:03.608Z,11.30
2023-01-29T13:26:08.928Z,10.20
2023-01-29T13:27:27.601Z,12.40
2023-01-29T13:28:31.815Z,11.30
2023-01-29T13:29:35.433Z,10.40
2023-01-29T13:30:39.593Z,12.80
2023-01-29T13:31:48.299Z,12.00
2023-01-29T13:32:54.298Z,9.70
2023-01-29T13:34:15.439Z,10.50
2023-01-29T13:35:21.974Z,12.10
2023-01-29T13:36:29.598Z,11.30
2023-01-29T13:37:36.206Z,13.00
2023-01-29T13:38:41.768Z,8.60
2023-01-29T13:39:52.077Z,12.90
2023-01-29T13:41:01.547Z,10.70
2023-01-29T13:42:16.053Z,9.10
2023-01-29T13:43:22.654Z,11.90
2023-01-29T13:44:33.687Z,12.00
2023-01-29T13:46:55.117Z,9.70
2023-01-29T13:48:28.890Z,9.90
2023-01-29T13:49:35.109Z,8.20
2023-01-29T13:50:42.480Z,9.00
2023-01-29T13:51:46.159Z,10.40
2023-01-29T13:53:04.630Z,10.40
2023-01-29T13:54:18.121Z,10.00
2023-01-29T13:55:30.922Z,9.80
2023-01-29T13:56:34.473Z,10.30
2023-01-29T13:57:44.183Z,10.90
2023-01-29T13:58:47.681Z,11.80
2023-01-29T13:59:55.128Z,12.80
2023-01-29T14:01:01.378Z,12.20
2023-01-29T14:02:20.415Z,10.60
2023-01-29T14:03:24.011Z,10.90
2023-01-29T14:04:30.591Z,7.90
2023-01-29T14:05:57.855Z,11.30
2023-01-29T14:07:06.434Z,9.80
2023-01-29T14:08:09.969Z,9.40
2023-01-29T14:09:55.259Z,12.50
2023-01-29T14:11:17.140Z,9.10
2023-01-29T14:12:23.868Z,10.20
2023-01-29T14:13:34.088Z,9.60
2023-01-29T14:15:01.075Z,9.20
2023-01-29T14:16:04.598Z,10.30
2023-01-29T14:17:08.310Z,10.80
2023-01-29T14:18:11.842Z,9.90
2023-01-29T14:19:19.207Z,11.10
2023-01-29T14:20:45.224Z,12.70
2023-01-29T14:21:50.891Z,8.60
2023-01-29T14:24:10.167Z,9.30
2023-01-29T14:25:19.690Z,8.90
2023-01-29T14:26:43.709Z,7.90
2023-01-29T14:27:48.433Z,9.20
2023-01-29T14:30:09.746Z,9.50
2023-01-29T14:31:13.546Z,10.00
2023-01-29T14:32:26.061Z,10.50
2023-01-29T14:33:42.546Z,10.90
2023-01-29T14:34:52.138Z,10.10
2023-01-29T14:35:57.923Z,11.10
2023-01-29T14:37:15.953Z,10.80
2023-01-29T14:38:19.577Z,10.80
2023-01-29T14:39:37.588Z,10.60
2023-01-29T14:40:42.942Z,10.50
2023-01-29T14:41:46.767Z,9.90
2023-01-29T14:42:56.887Z,11.30
2023-01-29T14:44:38.453Z,10.00
2023-01-29T14:45:42.592Z,9.50
2023-01-29T14:46:46.346Z,12.40
2023-01-29T14:47:49.921Z,10.80
2023-01-29T14:48:53.631Z,10.80
2023-01-29T14:49:59.154Z,10.80
2023-01-29T14:51:10.899Z,10.50
2023-01-29T14:52:15.949Z,12.30
2023-01-29T14:53:57.063Z,10.90
2023-01-29T14:55:04.653Z,11.60
2023-01-29T14:56:27.874Z,12.20
2023-01-29T14:57:32.092Z,8.10
2023-01-29T14:58:42.667Z,9.20
2023-01-29T14:59:55.757Z,10.00
2023-01-29T15:01:01.335Z,8.70
2023-01-29T15:02:15.828Z,9.30
2023-01-29T15:03:41.686Z,9.90
2023-01-29T15:04:55.125Z,10.10
2023-01-29T15:06:00.860Z,11.90
2023-01-29T15:07:10.337Z,10.80
2023-01-29T15:08:37.767Z,9.40
2023-01-29T15:09:47.529Z,9.70
2023-01-29T15:11:13.375Z,12.00
2023-01-29T15:12:23.301Z,9.90
2023-01-29T15:13:38.017Z,9.10
2023-01-29T15:14:56.823Z,9.30
2023-01-29T15:16:15.110Z,9.60
2023-01-29T15:17:25.096Z,9.40
2023-01-29T15:18:37.170Z,9.70
2023-01-29T15:19:47.847Z,10.10
2023-01-29T15:21:05.773Z,10.70
2023-01-29T15:22:14.665Z,9.80
2023-01-29T15:23:30.506Z,8.20
2023-01-29T15:24:35.299Z,10.10
2023-01-29T15:25:49.129Z,10.90
2023-01-29T15:26:54.161Z,8.60
2023-01-29T15:27:58.503Z,9.80
2023-01-29T15:29:04.642Z,10.50
2023-01-29T15:30:16.415Z,10.50
2023-01-29T15:31:20.563Z,10.50
2023-01-29T15:32:35.204Z,10.90
2023-01-29T15:33:42.771Z,11.10
2023-01-29T15:34:54.857Z,9.60
2023-01-29T15:36:07.860Z,9.30